Terminal Aerodrome Forecast
Issued by NWS

Home | Current Version | Previous Version | Text Only | Print | Product List | Glossary Off
Versions: 1 2 3 4 5 6 7 8 9 10 11 12 13

000
FTUS43 KICT 201100
TAFHUT
TAF
KHUT 201122Z 2012/2112 19008KT 6SM BR FEW010
     FM201400 22013KT P6SM SCT040
     FM202300 22007KT P6SM VCTS SCT050CB BKN100
     FM210400 33008KT P6SM VCTS BKN070CB=

USA.gov is the U.S. government's official web portal to all federal, state and local government web resources and services.